sensor_id;sensor_type;location;lat;lon;timestamp;P1;durP1;ratioP1;P2;durP2;ratioP2
46653;SDS011;38960;51.074;17.004;2023-11-19T00:02:13;29.87;;;18.60;;
46653;SDS011;38960;51.074;17.004;2023-11-19T00:04:38;32.00;;;19.43;;
46653;SDS011;38960;51.074;17.004;2023-11-19T00:07:05;29.67;;;18.57;;
46653;SDS011;38960;51.074;17.004;2023-11-19T00:09:34;31.20;;;20.03;;
46653;SDS011;38960;51.074;17.004;2023-11-19T00:12:02;31.90;;;19.73;;
46653;SDS011;38960;51.074;17.004;2023-11-19T00:14:31;31.20;;;19.83;;
46653;SDS011;38960;51.074;17.004;2023-11-19T00:16:57;32.03;;;20.33;;
46653;SDS011;38960;51.074;17.004;2023-11-19T00:19:23;35.20;;;19.87;;
46653;SDS011;38960;51.074;17.004;2023-11-19T00:21:48;32.40;;;20.53;;
46653;SDS011;38960;51.074;17.004;2023-11-19T00:24:14;34.23;;;19.40;;
46653;SDS011;38960;51.074;17.004;2023-11-19T00:26:41;31.00;;;19.37;;
46653;SDS011;38960;51.074;17.004;2023-11-19T00:29:07;33.70;;;19.90;;
46653;SDS011;38960;51.074;17.004;2023-11-19T00:31:33;32.10;;;20.00;;
46653;SDS011;38960;51.074;17.004;2023-11-19T00:33:58;33.23;;;20.33;;
46653;SDS011;38960;51.074;17.004;2023-11-19T00:36:24;31.80;;;20.40;;
46653;SDS011;38960;51.074;17.004;2023-11-19T00:38:50;40.33;;;21.17;;
46653;SDS011;38960;51.074;17.004;2023-11-19T00:41:17;35.47;;;21.60;;
46653;SDS011;38960;51.074;17.004;2023-11-19T00:43:43;29.90;;;19.10;;
46653;SDS011;38960;51.074;17.004;2023-11-19T00:46:10;32.60;;;20.20;;
46653;SDS011;38960;51.074;17.004;2023-11-19T00:48:41;31.60;;;20.38;;
46653;SDS011;38960;51.074;17.004;2023-11-19T00:51:07;31.80;;;21.57;;
46653;SDS011;38960;51.074;17.004;2023-11-19T00:53:33;32.37;;;21.40;;
46653;SDS011;38960;51.074;17.004;2023-11-19T00:56:01;34.33;;;21.13;;
46653;SDS011;38960;51.074;17.004;2023-11-19T00:58:27;35.50;;;23.17;;
46653;SDS011;38960;51.074;17.004;2023-11-19T01:00:52;35.17;;;21.77;;
46653;SDS011;38960;51.074;17.004;2023-11-19T01:03:18;34.30;;;20.93;;
46653;SDS011;38960;51.074;17.004;2023-11-19T01:05:43;30.40;;;21.20;;
46653;SDS011;38960;51.074;17.004;2023-11-19T01:08:10;33.73;;;21.67;;
46653;SDS011;38960;51.074;17.004;2023-11-19T01:10:39;39.40;;;23.10;;
46653;SDS011;38960;51.074;17.004;2023-11-19T01:13:04;34.07;;;20.97;;
46653;SDS011;38960;51.074;17.004;2023-11-19T01:15:33;36.17;;;21.63;;
46653;SDS011;38960;51.074;17.004;2023-11-19T01:17:59;33.77;;;20.97;;
46653;SDS011;38960;51.074;17.004;2023-11-19T01:20:25;31.10;;;20.60;;
46653;SDS011;38960;51.074;17.004;2023-11-19T01:22:51;32.30;;;20.40;;
46653;SDS011;38960;51.074;17.004;2023-11-19T01:25:17;33.10;;;19.97;;
46653;SDS011;38960;51.074;17.004;2023-11-19T01:27:43;33.23;;;21.83;;
46653;SDS011;38960;51.074;17.004;2023-11-19T01:30:09;34.50;;;22.50;;
46653;SDS011;38960;51.074;17.004;2023-11-19T01:32:38;36.57;;;22.13;;
46653;SDS011;38960;51.074;17.004;2023-11-19T01:35:04;35.10;;;21.67;;
46653;SDS011;38960;51.074;17.004;2023-11-19T01:37:29;33.67;;;22.10;;
46653;SDS011;38960;51.074;17.004;2023-11-19T01:39:56;34.37;;;21.93;;
46653;SDS011;38960;51.074;17.004;2023-11-19T01:42:23;37.77;;;22.53;;
46653;SDS011;38960;51.074;17.004;2023-11-19T01:44:59;33.77;;;20.67;;
46653;SDS011;38960;51.074;17.004;2023-11-19T01:47:26;30.33;;;20.53;;
46653;SDS011;38960;51.074;17.004;2023-11-19T01:49:52;35.87;;;21.77;;
46653;SDS011;38960;51.074;17.004;2023-11-19T01:52:18;30.70;;;20.40;;
46653;SDS011;38960;51.074;17.004;2023-11-19T01:54:44;35.73;;;20.87;;
46653;SDS011;38960;51.074;17.004;2023-11-19T01:57:11;37.27;;;21.80;;
46653;SDS011;38960;51.074;17.004;2023-11-19T01:59:38;36.30;;;22.43;;
46653;SDS011;38960;51.074;17.004;2023-11-19T02:02:03;35.43;;;21.63;;
46653;SDS011;38960;51.074;17.004;2023-11-19T02:04:30;30.27;;;20.70;;
46653;SDS011;38960;51.074;17.004;2023-11-19T02:06:56;34.77;;;23.07;;
46653;SDS011;38960;51.074;17.004;2023-11-19T02:09:23;32.83;;;19.90;;
46653;SDS011;38960;51.074;17.004;2023-11-19T02:11:49;34.17;;;19.90;;
46653;SDS011;38960;51.074;17.004;2023-11-19T02:14:17;38.03;;;20.70;;
46653;SDS011;38960;51.074;17.004;2023-11-19T02:16:42;35.67;;;23.13;;
46653;SDS011;38960;51.074;17.004;2023-11-19T02:19:08;29.97;;;20.67;;
46653;SDS011;38960;51.074;17.004;2023-11-19T02:21:36;37.13;;;21.70;;
46653;SDS011;38960;51.074;17.004;2023-11-19T02:24:05;31.27;;;20.13;;
46653;SDS011;38960;51.074;17.004;2023-11-19T02:26:51;30.80;;;21.57;;
46653;SDS011;38960;51.074;17.004;2023-11-19T02:29:22;35.03;;;21.57;;
46653;SDS011;38960;51.074;17.004;2023-11-19T02:31:47;34.83;;;22.17;;
46653;SDS011;38960;51.074;17.004;2023-11-19T02:34:13;35.67;;;22.90;;
46653;SDS011;38960;51.074;17.004;2023-11-19T02:36:39;32.17;;;20.47;;
46653;SDS011;38960;51.074;17.004;2023-11-19T02:39:06;32.23;;;21.13;;
46653;SDS011;38960;51.074;17.004;2023-11-19T02:41:36;31.97;;;20.13;;
46653;SDS011;38960;51.074;17.004;2023-11-19T02:44:01;37.70;;;20.03;;
46653;SDS011;38960;51.074;17.004;2023-11-19T02:46:27;34.83;;;20.73;;
46653;SDS011;38960;51.074;17.004;2023-11-19T02:48:52;38.13;;;20.87;;
46653;SDS011;38960;51.074;17.004;2023-11-19T02:51:18;36.07;;;20.63;;
46653;SDS011;38960;51.074;17.004;2023-11-19T02:53:43;32.27;;;20.20;;
46653;SDS011;38960;51.074;17.004;2023-11-19T02:56:09;34.07;;;23.13;;
46653;SDS011;38960;51.074;17.004;2023-11-19T02:58:45;36.67;;;21.60;;
46653;SDS011;38960;51.074;17.004;2023-11-19T03:01:11;35.40;;;21.20;;
46653;SDS011;38960;51.074;17.004;2023-11-19T03:03:48;32.30;;;21.10;;
46653;SDS011;38960;51.074;17.004;2023-11-19T03:06:19;32.10;;;21.30;;
46653;SDS011;38960;51.074;17.004;2023-11-19T03:08:44;37.37;;;23.23;;
46653;SDS011;38960;51.074;17.004;2023-11-19T03:11:10;34.27;;;22.40;;
46653;SDS011;38960;51.074;17.004;2023-11-19T03:13:35;34.67;;;21.80;;
46653;SDS011;38960;51.074;17.004;2023-11-19T03:16:01;37.40;;;23.13;;
46653;SDS011;38960;51.074;17.004;2023-11-19T03:18:26;33.17;;;21.50;;
46653;SDS011;38960;51.074;17.004;2023-11-19T03:20:53;36.30;;;23.77;;
46653;SDS011;38960;51.074;17.004;2023-11-19T03:23:19;35.33;;;22.83;;
46653;SDS011;38960;51.074;17.004;2023-11-19T03:25:44;38.77;;;23.33;;
46653;SDS011;38960;51.074;17.004;2023-11-19T03:28:10;35.90;;;22.53;;
46653;SDS011;38960;51.074;17.004;2023-11-19T03:30:36;33.20;;;21.53;;
46653;SDS011;38960;51.074;17.004;2023-11-19T03:33:02;34.73;;;21.30;;
46653;SDS011;38960;51.074;17.004;2023-11-19T03:35:28;35.73;;;21.63;;
46653;SDS011;38960;51.074;17.004;2023-11-19T03:37:53;35.77;;;22.87;;
46653;SDS011;38960;51.074;17.004;2023-11-19T03:40:19;41.77;;;23.70;;
46653;SDS011;38960;51.074;17.004;2023-11-19T03:42:45;36.87;;;22.77;;
46653;SDS011;38960;51.074;17.004;2023-11-19T03:45:11;33.70;;;21.27;;
46653;SDS011;38960;51.074;17.004;2023-11-19T03:47:37;37.73;;;22.83;;
46653;SDS011;38960;51.074;17.004;2023-11-19T03:50:02;35.80;;;22.00;;
46653;SDS011;38960;51.074;17.004;2023-11-19T03:52:29;34.47;;;20.83;;
46653;SDS011;38960;51.074;17.004;2023-11-19T03:54:55;37.20;;;20.60;;
46653;SDS011;38960;51.074;17.004;2023-11-19T03:57:21;36.13;;;21.27;;
46653;SDS011;38960;51.074;17.004;2023-11-19T03:59:47;34.30;;;21.30;;
46653;SDS011;38960;51.074;17.004;2023-11-19T04:02:13;34.60;;;22.07;;
46653;SDS011;38960;51.074;17.004;2023-11-19T04:04:38;35.17;;;21.60;;
46653;SDS011;38960;51.074;17.004;2023-11-19T04:07:04;37.87;;;22.00;;
46653;SDS011;38960;51.074;17.004;2023-11-19T04:09:30;36.17;;;21.70;;
46653;SDS011;38960;51.074;17.004;2023-11-19T04:11:58;34.17;;;21.37;;
46653;SDS011;38960;51.074;17.004;2023-11-19T04:14:23;33.60;;;21.70;;
46653;SDS011;38960;51.074;17.004;2023-11-19T04:16:49;30.13;;;20.57;;
46653;SDS011;38960;51.074;17.004;2023-11-19T04:19:16;32.90;;;20.33;;
46653;SDS011;38960;51.074;17.004;2023-11-19T04:21:42;31.97;;;21.00;;
46653;SDS011;38960;51.074;17.004;2023-11-19T04:24:08;34.97;;;20.67;;
46653;SDS011;38960;51.074;17.004;2023-11-19T04:26:34;31.13;;;20.27;;
46653;SDS011;38960;51.074;17.004;2023-11-19T04:28:59;29.43;;;20.10;;
46653;SDS011;38960;51.074;17.004;2023-11-19T04:31:29;30.40;;;19.97;;
46653;SDS011;38960;51.074;17.004;2023-11-19T04:33:56;30.33;;;19.50;;
46653;SDS011;38960;51.074;17.004;2023-11-19T04:36:22;32.67;;;20.40;;
46653;SDS011;38960;51.074;17.004;2023-11-19T04:38:49;28.97;;;18.97;;
46653;SDS011;38960;51.074;17.004;2023-11-19T04:41:15;32.90;;;20.10;;
46653;SDS011;38960;51.074;17.004;2023-11-19T04:43:41;29.30;;;18.17;;
46653;SDS011;38960;51.074;17.004;2023-11-19T04:46:06;26.93;;;17.87;;
46653;SDS011;38960;51.074;17.004;2023-11-19T04:48:32;28.87;;;18.70;;
46653;SDS011;38960;51.074;17.004;2023-11-19T04:50:57;32.17;;;20.17;;
46653;SDS011;38960;51.074;17.004;2023-11-19T04:53:23;28.40;;;17.60;;
46653;SDS011;38960;51.074;17.004;2023-11-19T04:55:48;28.27;;;18.00;;
46653;SDS011;38960;51.074;17.004;2023-11-19T04:58:14;30.77;;;19.77;;
46653;SDS011;38960;51.074;17.004;2023-11-19T05:00:39;29.73;;;18.27;;
46653;SDS011;38960;51.074;17.004;2023-11-19T05:03:05;27.67;;;17.30;;
46653;SDS011;38960;51.074;17.004;2023-11-19T05:05:30;25.53;;;16.90;;
46653;SDS011;38960;51.074;17.004;2023-11-19T05:07:56;28.30;;;17.27;;
46653;SDS011;38960;51.074;17.004;2023-11-19T05:10:22;26.77;;;16.67;;
46653;SDS011;38960;51.074;17.004;2023-11-19T05:12:47;23.33;;;16.07;;
46653;SDS011;38960;51.074;17.004;2023-11-19T05:15:13;26.73;;;16.67;;
46653;SDS011;38960;51.074;17.004;2023-11-19T05:17:40;22.20;;;15.07;;
46653;SDS011;38960;51.074;17.004;2023-11-19T05:20:06;25.47;;;16.60;;
46653;SDS011;38960;51.074;17.004;2023-11-19T05:22:41;28.37;;;16.47;;
46653;SDS011;38960;51.074;17.004;2023-11-19T05:25:07;29.27;;;16.80;;
46653;SDS011;38960;51.074;17.004;2023-11-19T05:27:34;24.43;;;16.40;;
46653;SDS011;38960;51.074;17.004;2023-11-19T05:30:01;24.93;;;15.73;;
46653;SDS011;38960;51.074;17.004;2023-11-19T05:32:27;25.40;;;15.77;;
46653;SDS011;38960;51.074;17.004;2023-11-19T05:34:53;23.50;;;15.63;;
46653;SDS011;38960;51.074;17.004;2023-11-19T05:37:18;23.37;;;15.33;;
46653;SDS011;38960;51.074;17.004;2023-11-19T05:39:44;24.60;;;16.07;;
46653;SDS011;38960;51.074;17.004;2023-11-19T05:42:10;23.37;;;15.13;;
46653;SDS011;38960;51.074;17.004;2023-11-19T05:44:36;22.90;;;15.43;;
46653;SDS011;38960;51.074;17.004;2023-11-19T05:47:03;23.40;;;15.30;;
46653;SDS011;38960;51.074;17.004;2023-11-19T05:49:29;21.53;;;14.17;;
46653;SDS011;38960;51.074;17.004;2023-11-19T05:51:54;23.47;;;15.53;;
46653;SDS011;38960;51.074;17.004;2023-11-19T05:54:21;22.67;;;14.83;;
46653;SDS011;38960;51.074;17.004;2023-11-19T05:56:49;19.63;;;14.13;;
46653;SDS011;38960;51.074;17.004;2023-11-19T05:59:15;22.00;;;14.93;;
46653;SDS011;38960;51.074;17.004;2023-11-19T06:01:45;22.60;;;14.00;;
46653;SDS011;38960;51.074;17.004;2023-11-19T06:04:11;24.87;;;15.17;;
46653;SDS011;38960;51.074;17.004;2023-11-19T06:06:37;21.67;;;15.23;;
46653;SDS011;38960;51.074;17.004;2023-11-19T06:09:03;22.17;;;14.90;;
46653;SDS011;38960;51.074;17.004;2023-11-19T06:11:29;22.70;;;14.93;;
46653;SDS011;38960;51.074;17.004;2023-11-19T06:13:55;21.77;;;13.53;;
46653;SDS011;38960;51.074;17.004;2023-11-19T06:16:21;18.30;;;13.27;;
46653;SDS011;38960;51.074;17.004;2023-11-19T06:18:46;20.20;;;13.93;;
46653;SDS011;38960;51.074;17.004;2023-11-19T06:21:12;21.47;;;14.30;;
46653;SDS011;38960;51.074;17.004;2023-11-19T06:23:37;22.47;;;14.33;;
46653;SDS011;38960;51.074;17.004;2023-11-19T06:26:03;20.57;;;14.40;;
46653;SDS011;38960;51.074;17.004;2023-11-19T06:28:30;21.43;;;14.27;;
46653;SDS011;38960;51.074;17.004;2023-11-19T06:30:56;23.23;;;14.50;;
46653;SDS011;38960;51.074;17.004;2023-11-19T06:33:23;22.63;;;15.27;;
46653;SDS011;38960;51.074;17.004;2023-11-19T06:35:49;20.40;;;14.93;;
46653;SDS011;38960;51.074;17.004;2023-11-19T06:38:15;22.90;;;14.87;;
46653;SDS011;38960;51.074;17.004;2023-11-19T06:40:40;22.83;;;14.17;;
46653;SDS011;38960;51.074;17.004;2023-11-19T06:43:06;19.57;;;13.53;;
46653;SDS011;38960;51.074;17.004;2023-11-19T06:45:33;17.33;;;12.23;;
46653;SDS011;38960;51.074;17.004;2023-11-19T06:48:02;15.67;;;12.07;;
46653;SDS011;38960;51.074;17.004;2023-11-19T06:50:33;22.58;;;13.88;;
46653;SDS011;38960;51.074;17.004;2023-11-19T06:52:59;18.73;;;12.37;;
46653;SDS011;38960;51.074;17.004;2023-11-19T06:55:24;17.20;;;11.80;;
46653;SDS011;38960;51.074;17.004;2023-11-19T06:57:51;16.53;;;11.23;;
46653;SDS011;38960;51.074;17.004;2023-11-19T07:00:16;16.37;;;10.63;;
46653;SDS011;38960;51.074;17.004;2023-11-19T07:02:43;16.13;;;10.87;;
46653;SDS011;38960;51.074;17.004;2023-11-19T07:05:09;15.43;;;10.27;;
46653;SDS011;38960;51.074;17.004;2023-11-19T07:07:37;13.73;;;10.20;;
46653;SDS011;38960;51.074;17.004;2023-11-19T07:10:02;15.20;;;10.40;;
46653;SDS011;38960;51.074;17.004;2023-11-19T07:12:29;16.03;;;10.27;;
46653;SDS011;38960;51.074;17.004;2023-11-19T07:14:55;16.43;;;9.67;;
46653;SDS011;38960;51.074;17.004;2023-11-19T07:17:21;15.93;;;10.73;;
46653;SDS011;38960;51.074;17.004;2023-11-19T07:19:47;15.33;;;11.03;;
46653;SDS011;38960;51.074;17.004;2023-11-19T07:22:14;15.47;;;10.40;;
46653;SDS011;38960;51.074;17.004;2023-11-19T07:24:40;18.33;;;10.90;;
46653;SDS011;38960;51.074;17.004;2023-11-19T07:27:06;15.63;;;10.60;;
46653;SDS011;38960;51.074;17.004;2023-11-19T07:29:34;12.43;;;9.37;;
46653;SDS011;38960;51.074;17.004;2023-11-19T07:32:02;12.47;;;9.23;;
46653;SDS011;38960;51.074;17.004;2023-11-19T07:34:28;13.57;;;10.07;;
46653;SDS011;38960;51.074;17.004;2023-11-19T07:36:54;14.57;;;10.37;;
46653;SDS011;38960;51.074;17.004;2023-11-19T07:39:22;13.77;;;10.27;;
46653;SDS011;38960;51.074;17.004;2023-11-19T07:41:47;13.97;;;9.97;;
46653;SDS011;38960;51.074;17.004;2023-11-19T07:44:13;16.57;;;11.30;;
46653;SDS011;38960;51.074;17.004;2023-11-19T07:46:39;14.80;;;10.40;;
46653;SDS011;38960;51.074;17.004;2023-11-19T07:49:07;16.27;;;10.90;;
46653;SDS011;38960;51.074;17.004;2023-11-19T07:51:33;15.70;;;10.80;;
46653;SDS011;38960;51.074;17.004;2023-11-19T07:53:58;18.83;;;11.10;;
46653;SDS011;38960;51.074;17.004;2023-11-19T07:56:24;16.97;;;10.47;;
46653;SDS011;38960;51.074;17.004;2023-11-19T07:58:49;14.33;;;10.50;;
46653;SDS011;38960;51.074;17.004;2023-11-19T08:01:15;15.00;;;10.07;;
46653;SDS011;38960;51.074;17.004;2023-11-19T08:03:41;15.87;;;10.13;;
46653;SDS011;38960;51.074;17.004;2023-11-19T08:06:06;17.57;;;11.67;;
46653;SDS011;38960;51.074;17.004;2023-11-19T08:08:32;14.07;;;9.60;;
46653;SDS011;38960;51.074;17.004;2023-11-19T08:10:58;16.67;;;10.60;;
46653;SDS011;38960;51.074;17.004;2023-11-19T08:13:24;16.00;;;10.60;;
46653;SDS011;38960;51.074;17.004;2023-11-19T08:15:50;14.10;;;9.53;;
46653;SDS011;38960;51.074;17.004;2023-11-19T08:18:16;19.53;;;12.07;;
46653;SDS011;38960;51.074;17.004;2023-11-19T08:20:41;15.77;;;10.63;;
46653;SDS011;38960;51.074;17.004;2023-11-19T08:23:09;19.20;;;11.73;;
46653;SDS011;38960;51.074;17.004;2023-11-19T08:25:34;17.07;;;10.63;;
46653;SDS011;38960;51.074;17.004;2023-11-19T08:28:00;16.17;;;11.17;;
46653;SDS011;38960;51.074;17.004;2023-11-19T08:30:26;17.13;;;12.63;;
46653;SDS011;38960;51.074;17.004;2023-11-19T08:32:52;18.50;;;12.33;;
46653;SDS011;38960;51.074;17.004;2023-11-19T08:35:17;16.53;;;11.00;;
46653;SDS011;38960;51.074;17.004;2023-11-19T08:37:43;17.33;;;10.80;;
46653;SDS011;38960;51.074;17.004;2023-11-19T08:40:11;17.37;;;11.13;;
46653;SDS011;38960;51.074;17.004;2023-11-19T08:42:37;15.77;;;10.83;;
46653;SDS011;38960;51.074;17.004;2023-11-19T08:45:04;15.23;;;10.90;;
46653;SDS011;38960;51.074;17.004;2023-11-19T08:47:30;15.00;;;10.47;;
46653;SDS011;38960;51.074;17.004;2023-11-19T08:49:55;16.33;;;11.83;;
46653;SDS011;38960;51.074;17.004;2023-11-19T08:52:21;16.87;;;11.73;;
46653;SDS011;38960;51.074;17.004;2023-11-19T08:54:47;20.30;;;12.87;;
46653;SDS011;38960;51.074;17.004;2023-11-19T08:57:12;16.03;;;11.20;;
46653;SDS011;38960;51.074;17.004;2023-11-19T08:59:38;18.83;;;11.43;;
46653;SDS011;38960;51.074;17.004;2023-11-19T09:02:06;18.53;;;12.47;;
46653;SDS011;38960;51.074;17.004;2023-11-19T09:04:33;17.77;;;11.43;;
46653;SDS011;38960;51.074;17.004;2023-11-19T09:06:58;16.13;;;10.80;;
46653;SDS011;38960;51.074;17.004;2023-11-19T09:09:24;16.10;;;11.67;;
46653;SDS011;38960;51.074;17.004;2023-11-19T09:11:50;16.80;;;10.37;;
46653;SDS011;38960;51.074;17.004;2023-11-19T09:14:16;16.70;;;10.87;;
46653;SDS011;38960;51.074;17.004;2023-11-19T09:16:43;16.87;;;10.43;;
46653;SDS011;38960;51.074;17.004;2023-11-19T09:19:08;16.90;;;10.50;;
46653;SDS011;38960;51.074;17.004;2023-11-19T09:21:34;19.80;;;11.27;;
46653;SDS011;38960;51.074;17.004;2023-11-19T09:24:02;16.17;;;11.57;;
46653;SDS011;38960;51.074;17.004;2023-11-19T09:26:28;15.83;;;10.83;;
46653;SDS011;38960;51.074;17.004;2023-11-19T09:28:54;15.97;;;11.47;;
46653;SDS011;38960;51.074;17.004;2023-11-19T09:31:19;17.70;;;11.57;;
46653;SDS011;38960;51.074;17.004;2023-11-19T09:33:45;17.00;;;11.47;;
46653;SDS011;38960;51.074;17.004;2023-11-19T09:36:13;17.27;;;11.40;;
46653;SDS011;38960;51.074;17.004;2023-11-19T09:38:40;16.33;;;11.07;;
46653;SDS011;38960;51.074;17.004;2023-11-19T09:41:05;19.93;;;12.27;;
46653;SDS011;38960;51.074;17.004;2023-11-19T09:43:35;16.13;;;10.43;;
46653;SDS011;38960;51.074;17.004;2023-11-19T09:46:04;16.93;;;11.50;;
46653;SDS011;38960;51.074;17.004;2023-11-19T09:48:35;16.93;;;11.13;;
46653;SDS011;38960;51.074;17.004;2023-11-19T09:51:02;15.30;;;10.37;;
46653;SDS011;38960;51.074;17.004;2023-11-19T09:53:29;15.07;;;10.30;;
46653;SDS011;38960;51.074;17.004;2023-11-19T09:55:55;15.93;;;10.43;;
46653;SDS011;38960;51.074;17.004;2023-11-19T09:58:21;14.80;;;9.83;;
46653;SDS011;38960;51.074;17.004;2023-11-19T10:00:47;13.17;;;8.93;;
46653;SDS011;38960;51.074;17.004;2023-11-19T10:03:12;17.07;;;10.87;;
46653;SDS011;38960;51.074;17.004;2023-11-19T10:05:38;14.03;;;9.90;;
46653;SDS011;38960;51.074;17.004;2023-11-19T10:08:04;15.67;;;9.73;;
46653;SDS011;38960;51.074;17.004;2023-11-19T10:10:30;13.40;;;7.80;;
46653;SDS011;38960;51.074;17.004;2023-11-19T10:12:55;10.13;;;6.90;;
46653;SDS011;38960;51.074;17.004;2023-11-19T10:15:22;6.63;;;4.33;;
46653;SDS011;38960;51.074;17.004;2023-11-19T10:17:49;8.30;;;4.33;;
46653;SDS011;38960;51.074;17.004;2023-11-19T10:20:16;4.43;;;3.77;;
46653;SDS011;38960;51.074;17.004;2023-11-19T10:22:41;4.87;;;2.83;;
46653;SDS011;38960;51.074;17.004;2023-11-19T10:25:23;4.90;;;3.43;;
46653;SDS011;38960;51.074;17.004;2023-11-19T10:27:53;5.83;;;3.70;;
46653;SDS011;38960;51.074;17.004;2023-11-19T10:30:23;5.57;;;3.67;;
46653;SDS011;38960;51.074;17.004;2023-11-19T10:33:09;5.03;;;3.37;;
46653;SDS011;38960;51.074;17.004;2023-11-19T10:35:55;6.47;;;3.73;;
46653;SDS011;38960;51.074;17.004;2023-11-19T10:38:22;4.70;;;3.50;;
46653;SDS011;38960;51.074;17.004;2023-11-19T10:40:48;5.33;;;3.87;;
46653;SDS011;38960;51.074;17.004;2023-11-19T10:43:14;6.10;;;2.90;;
46653;SDS011;38960;51.074;17.004;2023-11-19T10:45:40;5.83;;;3.63;;
46653;SDS011;38960;51.074;17.004;2023-11-19T10:48:06;4.80;;;3.50;;
46653;SDS011;38960;51.074;17.004;2023-11-19T10:50:32;5.20;;;3.93;;
46653;SDS011;38960;51.074;17.004;2023-11-19T10:53:02;6.93;;;4.70;;
46653;SDS011;38960;51.074;17.004;2023-11-19T10:55:29;5.40;;;3.87;;
46653;SDS011;38960;51.074;17.004;2023-11-19T10:58:02;5.90;;;3.77;;
46653;SDS011;38960;51.074;17.004;2023-11-19T11:00:32;4.97;;;3.67;;
46653;SDS011;38960;51.074;17.004;2023-11-19T11:03:05;6.73;;;3.30;;
46653;SDS011;38960;51.074;17.004;2023-11-19T11:05:35;6.07;;;4.00;;
46653;SDS011;38960;51.074;17.004;2023-11-19T11:08:02;6.57;;;4.20;;
46653;SDS011;38960;51.074;17.004;2023-11-19T11:10:30;8.80;;;4.10;;
46653;SDS011;38960;51.074;17.004;2023-11-19T11:12:59;6.10;;;3.40;;
46653;SDS011;38960;51.074;17.004;2023-11-19T11:15:26;6.37;;;3.30;;
46653;SDS011;38960;51.074;17.004;2023-11-19T11:17:54;5.77;;;3.80;;
46653;SDS011;38960;51.074;17.004;2023-11-19T11:20:23;7.77;;;3.40;;
46653;SDS011;38960;51.074;17.004;2023-11-19T11:22:52;3.90;;;3.37;;
46653;SDS011;38960;51.074;17.004;2023-11-19T11:28:13;4.97;;;3.50;;
46653;SDS011;38960;51.074;17.004;2023-11-19T11:31:08;5.20;;;3.83;;
46653;SDS011;38960;51.074;17.004;2023-11-19T11:33:43;7.27;;;3.63;;
46653;SDS011;38960;51.074;17.004;2023-11-19T11:36:20;7.30;;;3.77;;
46653;SDS011;38960;51.074;17.004;2023-11-19T11:38:47;6.77;;;4.53;;
46653;SDS011;38960;51.074;17.004;2023-11-19T11:43:47;9.47;;;4.70;;
46653;SDS011;38960;51.074;17.004;2023-11-19T11:49:06;9.40;;;4.80;;
46653;SDS011;38960;51.074;17.004;2023-11-19T11:54:10;7.00;;;5.10;;
46653;SDS011;38960;51.074;17.004;2023-11-19T12:02:10;14.03;;;7.43;;
46653;SDS011;38960;51.074;17.004;2023-11-19T12:04:37;10.07;;;5.57;;
46653;SDS011;38960;51.074;17.004;2023-11-19T12:07:15;9.03;;;5.50;;
46653;SDS011;38960;51.074;17.004;2023-11-19T12:09:47;11.82;;;6.65;;
46653;SDS011;38960;51.074;17.004;2023-11-19T12:15:02;8.10;;;5.53;;
46653;SDS011;38960;51.074;17.004;2023-11-19T12:20:07;10.52;;;5.80;;
46653;SDS011;38960;51.074;17.004;2023-11-19T12:22:40;11.47;;;6.00;;
46653;SDS011;38960;51.074;17.004;2023-11-19T12:25:07;9.97;;;5.80;;
46653;SDS011;38960;51.074;17.004;2023-11-19T12:27:34;12.05;;;6.35;;
46653;SDS011;38960;51.074;17.004;2023-11-19T12:30:01;16.00;;;8.80;;
46653;SDS011;38960;51.074;17.004;2023-11-19T12:32:42;14.68;;;7.78;;
46653;SDS011;38960;51.074;17.004;2023-11-19T12:35:09;15.40;;;7.90;;
46653;SDS011;38960;51.074;17.004;2023-11-19T12:37:42;17.55;;;8.85;;
46653;SDS011;38960;51.074;17.004;2023-11-19T12:42:44;16.52;;;9.48;;
46653;SDS011;38960;51.074;17.004;2023-11-19T12:45:10;13.48;;;8.73;;
46653;SDS011;38960;51.074;17.004;2023-11-19T12:47:37;20.85;;;10.25;;
46653;SDS011;38960;51.074;17.004;2023-11-19T12:50:04;20.02;;;10.73;;
46653;SDS011;38960;51.074;17.004;2023-11-19T12:52:30;16.08;;;9.07;;
46653;SDS011;38960;51.074;17.004;2023-11-19T12:54:55;19.85;;;10.52;;
46653;SDS011;38960;51.074;17.004;2023-11-19T12:57:35;21.00;;;11.23;;
46653;SDS011;38960;51.074;17.004;2023-11-19T13:00:05;22.48;;;10.57;;
46653;SDS011;38960;51.074;17.004;2023-11-19T13:02:44;18.70;;;10.57;;
46653;SDS011;38960;51.074;17.004;2023-11-19T13:05:23;18.30;;;9.60;;
46653;SDS011;38960;51.074;17.004;2023-11-19T13:10:30;16.70;;;9.00;;
46653;SDS011;38960;51.074;17.004;2023-11-19T13:12:59;15.93;;;9.60;;
46653;SDS011;38960;51.074;17.004;2023-11-19T13:15:32;21.80;;;11.07;;
46653;SDS011;38960;51.074;17.004;2023-11-19T13:17:58;18.60;;;11.75;;
46653;SDS011;38960;51.074;17.004;2023-11-19T13:20:24;15.48;;;9.93;;
46653;SDS011;38960;51.074;17.004;2023-11-19T13:22:57;18.25;;;12.02;;
46653;SDS011;38960;51.074;17.004;2023-11-19T13:25:23;16.42;;;9.68;;
46653;SDS011;38960;51.074;17.004;2023-11-19T13:27:49;16.67;;;10.05;;
46653;SDS011;38960;51.074;17.004;2023-11-19T13:30:14;22.73;;;14.07;;
46653;SDS011;38960;51.074;17.004;2023-11-19T13:32:40;22.58;;;13.48;;
46653;SDS011;38960;51.074;17.004;2023-11-19T13:35:06;20.05;;;10.73;;
46653;SDS011;38960;51.074;17.004;2023-11-19T13:37:34;14.88;;;9.18;;
46653;SDS011;38960;51.074;17.004;2023-11-19T13:39:59;14.95;;;8.75;;
46653;SDS011;38960;51.074;17.004;2023-11-19T13:42:25;13.00;;;7.88;;
46653;SDS011;38960;51.074;17.004;2023-11-19T13:44:51;13.43;;;8.45;;
46653;SDS011;38960;51.074;17.004;2023-11-19T13:47:16;14.93;;;9.18;;
46653;SDS011;38960;51.074;17.004;2023-11-19T13:49:43;12.70;;;7.90;;
46653;SDS011;38960;51.074;17.004;2023-11-19T13:52:09;13.18;;;8.60;;
46653;SDS011;38960;51.074;17.004;2023-11-19T13:54:36;12.90;;;8.27;;
46653;SDS011;38960;51.074;17.004;2023-11-19T13:57:01;14.00;;;9.23;;
46653;SDS011;38960;51.074;17.004;2023-11-19T13:59:29;20.30;;;13.77;;
46653;SDS011;38960;51.074;17.004;2023-11-19T14:01:56;26.55;;;15.70;;
46653;SDS011;38960;51.074;17.004;2023-11-19T14:04:22;21.67;;;16.27;;
46653;SDS011;38960;51.074;17.004;2023-11-19T14:06:47;21.95;;;13.55;;
46653;SDS011;38960;51.074;17.004;2023-11-19T14:09:12;25.85;;;16.70;;
46653;SDS011;38960;51.074;17.004;2023-11-19T14:11:38;19.38;;;13.73;;
46653;SDS011;38960;51.074;17.004;2023-11-19T14:14:03;17.52;;;11.43;;
46653;SDS011;38960;51.074;17.004;2023-11-19T14:16:29;14.07;;;7.63;;
46653;SDS011;38960;51.074;17.004;2023-11-19T14:18:54;14.95;;;7.60;;
46653;SDS011;38960;51.074;17.004;2023-11-19T14:21:20;14.52;;;8.43;;
46653;SDS011;38960;51.074;17.004;2023-11-19T14:23:46;19.02;;;8.23;;
46653;SDS011;38960;51.074;17.004;2023-11-19T14:26:11;14.05;;;6.57;;
46653;SDS011;38960;51.074;17.004;2023-11-19T14:28:37;12.77;;;5.95;;
46653;SDS011;38960;51.074;17.004;2023-11-19T14:31:03;12.85;;;4.85;;
46653;SDS011;38960;51.074;17.004;2023-11-19T14:33:29;12.10;;;4.32;;
46653;SDS011;38960;51.074;17.004;2023-11-19T14:35:55;7.30;;;4.50;;
46653;SDS011;38960;51.074;17.004;2023-11-19T14:38:20;11.85;;;4.70;;
46653;SDS011;38960;51.074;17.004;2023-11-19T14:40:46;9.77;;;4.20;;